createdAt,value
2022-08-29T00:01:13.558Z,3.03
2022-08-29T00:03:41.134Z,2.70
2022-08-29T00:06:11.224Z,2.13
2022-08-29T00:08:38.789Z,2.93
2022-08-29T00:11:06.348Z,5.13
2022-08-29T00:13:34.029Z,4.13
2022-08-29T00:16:01.671Z,4.63
2022-08-29T00:18:29.172Z,4.83
2022-08-29T00:20:56.718Z,1.97
2022-08-29T00:23:24.205Z,2.40
2022-08-29T00:25:51.691Z,5.80
2022-08-29T00:28:19.139Z,2.67
2022-08-29T00:30:46.669Z,2.57
2022-08-29T00:33:14.249Z,2.23
2022-08-29T00:35:43.081Z,4.70
2022-08-29T00:38:12.703Z,3.23
2022-08-29T00:40:51.294Z,1.77
2022-08-29T00:43:21.545Z,4.70
2022-08-29T00:45:58.228Z,1.87
2022-08-29T00:48:25.900Z,3.83
2022-08-29T00:50:56.189Z,3.13
2022-08-29T00:53:28.283Z,4.90
2022-08-29T00:55:56.441Z,2.80
2022-08-29T00:58:29.036Z,4.10
2022-08-29T01:00:56.556Z,3.37
2022-08-29T01:03:24.136Z,5.53
2022-08-29T01:05:51.890Z,3.33
2022-08-29T01:08:19.663Z,3.43
2022-08-29T01:10:47.198Z,3.93
2022-08-29T01:13:14.951Z,5.87
2022-08-29T01:15:43.696Z,4.40
2022-08-29T01:18:11.279Z,7.20
2022-08-29T01:20:41.660Z,5.03
2022-08-29T01:23:24.225Z,2.97
2022-08-29T01:25:52.682Z,4.80
2022-08-29T01:28:22.183Z,5.43
2022-08-29T01:31:00.292Z,4.43
2022-08-29T01:33:28.400Z,3.27
2022-08-29T01:35:55.973Z,6.23
2022-08-29T01:38:23.592Z,4.43
2022-08-29T01:40:51.079Z,4.07
2022-08-29T01:43:18.651Z,8.30
2022-08-29T01:45:46.213Z,5.53
2022-08-29T01:48:13.933Z,6.57
2022-08-29T01:50:41.503Z,7.30
2022-08-29T01:53:09.044Z,2.77
2022-08-29T01:55:37.773Z,5.60
2022-08-29T01:58:05.575Z,5.83
2022-08-29T02:00:33.309Z,4.93
2022-08-29T02:03:00.836Z,3.20
2022-08-29T02:05:29.300Z,4.80
2022-08-29T02:07:57.427Z,5.47
2022-08-29T02:10:25.630Z,5.33
2022-08-29T02:12:53.168Z,4.47
2022-08-29T02:15:21.382Z,3.50
2022-08-29T02:17:48.868Z,3.70
2022-08-29T02:20:16.732Z,5.77
2022-08-29T02:22:44.424Z,3.57
2022-08-29T02:25:12.143Z,4.17
2022-08-29T02:27:39.665Z,3.87
2022-08-29T02:30:07.365Z,2.67
2022-08-29T02:32:34.896Z,3.13
2022-08-29T02:35:02.372Z,3.03
2022-08-29T02:37:32.497Z,6.43
2022-08-29T02:40:00.026Z,4.07
2022-08-29T02:42:27.567Z,5.30
2022-08-29T02:44:55.036Z,3.60
2022-08-29T02:47:22.610Z,6.20
2022-08-29T02:49:50.075Z,5.67
2022-08-29T02:52:18.016Z,4.87
2022-08-29T02:54:45.485Z,3.37
2022-08-29T02:57:12.974Z,3.03
2022-08-29T02:59:40.487Z,3.33
2022-08-29T03:02:08.103Z,3.47
2022-08-29T03:04:35.669Z,5.60
2022-08-29T03:07:03.171Z,8.43
2022-08-29T03:09:30.637Z,5.83
2022-08-29T03:11:58.155Z,3.93
2022-08-29T03:14:26.272Z,4.43
2022-08-29T03:16:53.731Z,4.57
2022-08-29T03:19:21.252Z,8.97
2022-08-29T03:21:49.103Z,4.70
2022-08-29T03:24:16.607Z,3.83
2022-08-29T03:26:56.535Z,6.27
2022-08-29T03:29:24.706Z,4.40
2022-08-29T03:31:52.218Z,4.10
2022-08-29T03:34:20.113Z,4.20
2022-08-29T03:36:47.759Z,4.63
2022-08-29T03:39:15.264Z,4.47
2022-08-29T03:41:43.105Z,5.60
2022-08-29T03:44:10.628Z,5.33
2022-08-29T03:46:38.244Z,3.00
2022-08-29T03:49:09.383Z,4.67
2022-08-29T03:51:37.823Z,4.07
2022-08-29T03:54:05.602Z,2.47
2022-08-29T03:56:33.358Z,4.97
2022-08-29T03:59:01.101Z,6.10
2022-08-29T04:01:28.948Z,8.77
2022-08-29T04:03:57.235Z,3.63
2022-08-29T04:06:25.637Z,4.30
2022-08-29T04:08:53.235Z,4.03
2022-08-29T04:11:21.640Z,4.13
2022-08-29T04:13:49.316Z,6.27
2022-08-29T04:16:18.353Z,4.60
2022-08-29T04:18:46.134Z,5.27
2022-08-29T04:21:13.904Z,3.43
2022-08-29T04:23:41.784Z,3.87
2022-08-29T04:26:35.985Z,5.03
2022-08-29T04:29:03.995Z,5.53
2022-08-29T04:31:31.604Z,5.77
2022-08-29T04:33:59.156Z,5.73
2022-08-29T04:36:26.666Z,5.47
2022-08-29T04:38:54.316Z,5.33
2022-08-29T04:41:21.805Z,8.03
2022-08-29T04:43:49.285Z,3.00
2022-08-29T04:46:23.779Z,4.60
2022-08-29T04:48:52.723Z,10.00
2022-08-29T04:51:20.753Z,7.67
2022-08-29T04:53:48.261Z,5.45
2022-08-29T04:56:16.378Z,5.23
2022-08-29T04:58:44.259Z,9.73
2022-08-29T05:01:16.172Z,6.93
2022-08-29T05:03:43.787Z,7.80
2022-08-29T05:06:12.371Z,4.27
2022-08-29T05:08:40.947Z,8.53
2022-08-29T05:11:11.684Z,7.17
2022-08-29T05:13:39.216Z,6.23
2022-08-29T05:16:11.134Z,6.80
2022-08-29T05:18:38.888Z,6.00
2022-08-29T05:21:06.611Z,5.10
2022-08-29T05:23:34.418Z,8.23
2022-08-29T05:26:03.145Z,4.10
2022-08-29T05:28:32.530Z,6.17
2022-08-29T05:31:00.229Z,10.73
2022-08-29T05:33:27.811Z,5.63
2022-08-29T05:35:55.298Z,11.70
2022-08-29T05:38:22.763Z,7.50
2022-08-29T05:40:50.248Z,5.53
2022-08-29T05:43:17.736Z,11.37
2022-08-29T05:45:45.365Z,6.60
2022-08-29T05:48:12.988Z,6.17
2022-08-29T05:50:41.279Z,7.87
2022-08-29T05:53:09.474Z,10.40
2022-08-29T05:55:42.790Z,7.03
2022-08-29T05:58:10.578Z,18.17
2022-08-29T06:00:39.347Z,9.67
2022-08-29T06:03:08.687Z,8.67
2022-08-29T06:05:36.299Z,12.63
2022-08-29T06:08:03.930Z,15.20
2022-08-29T06:10:31.500Z,14.30
2022-08-29T06:12:58.999Z,14.87
2022-08-29T06:15:26.588Z,19.13
2022-08-29T06:17:54.122Z,19.23
2022-08-29T06:20:21.779Z,16.97
2022-08-29T06:22:49.278Z,15.73
2022-08-29T06:25:37.896Z,17.10
2022-08-29T06:28:04.421Z,18.53
2022-08-29T06:30:32.893Z,18.83
2022-08-29T06:33:00.746Z,12.07
2022-08-29T06:35:28.229Z,10.77
2022-08-29T06:37:55.692Z,17.03
2022-08-29T06:40:23.368Z,16.80
2022-08-29T06:42:51.002Z,12.53
2022-08-29T06:45:18.558Z,15.20
2022-08-29T06:47:46.955Z,13.20
2022-08-29T06:50:15.074Z,21.17
2022-08-29T06:52:42.538Z,15.10
2022-08-29T06:55:10.635Z,19.17
2022-08-29T06:57:38.722Z,18.77
2022-08-29T07:00:21.658Z,12.50
2022-08-29T07:02:52.513Z,14.87
2022-08-29T07:05:22.204Z,18.37
2022-08-29T07:07:50.425Z,10.77
2022-08-29T07:10:22.278Z,21.37
2022-08-29T07:12:50.886Z,18.13
2022-08-29T07:15:18.639Z,23.13
2022-08-29T07:17:46.116Z,20.27
2022-08-29T07:20:14.338Z,10.47
2022-08-29T07:22:41.899Z,12.33
2022-08-29T07:25:10.166Z,15.73
2022-08-29T07:27:37.730Z,10.20
2022-08-29T07:30:06.186Z,13.47
2022-08-29T07:32:33.681Z,13.63
2022-08-29T07:35:01.392Z,8.63
2022-08-29T07:37:28.925Z,10.87
2022-08-29T07:39:56.447Z,10.50
2022-08-29T07:42:23.964Z,10.77
2022-08-29T07:44:51.492Z,9.27
2022-08-29T07:47:19.024Z,17.67
2022-08-29T07:49:46.496Z,10.03
2022-08-29T07:52:14.004Z,10.97
2022-08-29T07:54:41.533Z,11.50
2022-08-29T07:57:09.002Z,11.40
2022-08-29T07:59:36.506Z,10.97
2022-08-29T08:02:04.784Z,6.17
2022-08-29T08:04:33.140Z,6.03
2022-08-29T08:07:02.815Z,6.40
2022-08-29T08:09:30.424Z,11.47
2022-08-29T08:11:57.964Z,4.80
2022-08-29T08:14:34.762Z,4.93
2022-08-29T08:17:02.667Z,4.90
2022-08-29T08:19:30.320Z,9.07
2022-08-29T08:21:57.791Z,9.67
2022-08-29T08:24:25.395Z,8.57
2022-08-29T08:26:52.960Z,6.57
2022-08-29T08:29:20.492Z,5.73
2022-08-29T08:31:49.775Z,6.67
2022-08-29T08:34:18.175Z,8.40
2022-08-29T08:36:46.106Z,6.67
2022-08-29T08:39:14.417Z,7.77
2022-08-29T08:42:08.042Z,6.80
2022-08-29T08:44:38.646Z,7.87
2022-08-29T08:47:07.865Z,5.50
2022-08-29T08:49:52.841Z,5.67
2022-08-29T08:52:27.824Z,5.43
2022-08-29T08:55:23.522Z,6.13
2022-08-29T08:57:55.959Z,5.80
2022-08-29T09:00:23.601Z,6.57
2022-08-29T09:02:58.351Z,14.73
2022-08-29T09:05:36.920Z,4.77
2022-08-29T09:08:10.235Z,6.40
2022-08-29T09:10:43.660Z,3.67
2022-08-29T09:13:11.166Z,5.90
2022-08-29T09:15:48.990Z,7.87
2022-08-29T09:18:36.372Z,5.00
2022-08-29T09:21:37.038Z,9.67
2022-08-29T09:23:59.558Z,5.57
2022-08-29T09:26:27.393Z,5.07
2022-08-29T09:28:55.220Z,4.23
2022-08-29T09:31:33.304Z,4.50
2022-08-29T09:34:02.341Z,6.50
2022-08-29T09:36:50.251Z,7.83
2022-08-29T09:39:17.866Z,6.40
2022-08-29T09:41:46.359Z,5.40
2022-08-29T09:44:16.068Z,8.37
2022-08-29T09:46:43.569Z,6.03
2022-08-29T09:49:12.986Z,5.97
2022-08-29T09:51:42.160Z,5.70
2022-08-29T09:54:15.590Z,7.27
2022-08-29T09:57:03.349Z,8.13
2022-08-29T09:59:35.637Z,6.50
2022-08-29T10:02:09.269Z,7.80
2022-08-29T10:04:38.070Z,6.40
2022-08-29T10:07:15.141Z,5.57
2022-08-29T10:09:53.404Z,6.37
2022-08-29T10:12:25.357Z,9.60
2022-08-29T10:14:55.195Z,9.97
2022-08-29T10:17:26.928Z,4.33
2022-08-29T10:19:54.435Z,8.17
2022-08-29T10:22:39.702Z,7.20
2022-08-29T10:25:07.245Z,9.20
2022-08-29T10:27:43.596Z,7.50
2022-08-29T10:30:13.475Z,8.97
2022-08-29T10:32:44.017Z,9.90
2022-08-29T10:35:37.831Z,8.40
2022-08-29T10:38:26.251Z,7.87
2022-08-29T10:41:06.358Z,9.33
2022-08-29T10:43:39.581Z,8.83
2022-08-29T10:46:12.810Z,12.57
2022-08-29T10:48:46.626Z,7.97
2022-08-29T10:51:22.941Z,7.17
2022-08-29T10:53:58.248Z,5.00
2022-08-29T10:56:33.554Z,5.80
2022-08-29T10:59:07.481Z,5.80
2022-08-29T11:01:38.209Z,15.00
2022-08-29T11:04:18.156Z,11.80
2022-08-29T11:07:04.478Z,6.30
2022-08-29T11:09:38.113Z,4.90
2022-08-29T11:12:17.303Z,7.60
2022-08-29T11:14:52.170Z,3.83
2022-08-29T11:17:21.135Z,8.73
2022-08-29T11:19:55.304Z,9.00
2022-08-29T11:22:28.410Z,5.33
2022-08-29T11:25:10.128Z,8.63
2022-08-29T11:27:37.602Z,8.20
2022-08-29T11:30:16.292Z,6.73
2022-08-29T11:32:52.954Z,6.20
2022-08-29T11:35:20.488Z,8.97
2022-08-29T11:37:47.985Z,12.77
2022-08-29T11:40:15.548Z,6.67
2022-08-29T11:42:53.576Z,6.50
2022-08-29T11:45:36.949Z,6.77
2022-08-29T11:48:08.012Z,14.53
2022-08-29T11:50:36.934Z,7.47
2022-08-29T11:53:23.282Z,8.03
2022-08-29T11:56:10.571Z,6.00
2022-08-29T11:58:38.181Z,10.20
2022-08-29T12:03:41.645Z,5.27
2022-08-29T12:06:28.757Z,8.03
2022-08-29T12:09:14.643Z,5.53
2022-08-29T12:12:00.957Z,4.33
2022-08-29T12:14:37.881Z,7.77
2022-08-29T12:17:07.450Z,6.33
2022-08-29T12:19:47.171Z,6.13
2022-08-29T12:22:33.752Z,6.53
2022-08-29T12:25:21.250Z,5.60
2022-08-29T12:28:01.043Z,5.67
2022-08-29T12:30:30.786Z,3.83
2022-08-29T12:32:58.284Z,6.13
2022-08-29T12:35:32.190Z,9.40
2022-08-29T12:38:05.707Z,5.40
2022-08-29T12:40:33.228Z,8.17
2022-08-29T12:43:19.218Z,4.07
2022-08-29T12:45:47.172Z,6.30
2022-08-29T12:48:20.780Z,7.67
2022-08-29T12:50:48.292Z,6.10
2022-08-29T12:53:18.597Z,4.00
2022-08-29T12:55:51.482Z,6.40
2022-08-29T12:58:34.577Z,6.43
2022-08-29T13:01:02.326Z,6.30
2022-08-29T13:03:29.875Z,6.80
2022-08-29T13:06:08.448Z,7.90
2022-08-29T13:08:36.761Z,7.00
2022-08-29T13:11:06.983Z,9.77
2022-08-29T13:13:34.640Z,6.27
2022-08-29T13:16:03.768Z,4.87
2022-08-29T13:18:31.830Z,3.73
2022-08-29T13:21:05.659Z,9.20
2022-08-29T13:23:35.305Z,5.67
2022-08-29T13:26:02.982Z,6.13
2022-08-29T13:28:36.421Z,5.90
2022-08-29T13:31:03.942Z,8.57
2022-08-29T13:33:35.248Z,7.40
2022-08-29T13:36:23.807Z,7.20
2022-08-29T13:39:10.235Z,5.63
2022-08-29T13:41:37.970Z,7.73
2022-08-29T13:44:05.674Z,6.63
2022-08-29T13:46:33.281Z,6.53
2022-08-29T13:49:02.188Z,6.93
2022-08-29T13:51:29.653Z,9.17
2022-08-29T13:53:57.323Z,5.63
2022-08-29T13:56:32.527Z,5.30
2022-08-29T13:59:01.423Z,3.47
2022-08-29T14:01:30.885Z,6.23
2022-08-29T14:07:04.299Z,5.23
2022-08-29T14:09:42.208Z,6.97
2022-08-29T14:12:10.039Z,10.83
2022-08-29T14:14:37.529Z,6.10
2022-08-29T14:17:05.469Z,5.23
2022-08-29T14:19:33.246Z,8.63
2022-08-29T14:22:02.277Z,7.50
2022-08-29T14:24:30.794Z,6.50
2022-08-29T14:27:01.495Z,9.03
2022-08-29T14:29:33.823Z,9.40
2022-08-29T14:32:02.971Z,9.50
2022-08-29T14:34:32.376Z,8.10
2022-08-29T14:37:03.796Z,7.03
2022-08-29T14:39:31.324Z,8.47
2022-08-29T14:41:58.866Z,11.13
2022-08-29T14:44:26.458Z,5.03
2022-08-29T14:46:53.958Z,7.60
2022-08-29T14:49:21.499Z,6.20
2022-08-29T14:51:49.646Z,6.23
2022-08-29T14:54:17.220Z,8.53
2022-08-29T14:56:48.598Z,7.33
2022-08-29T14:59:16.909Z,5.57
2022-08-29T15:01:51.303Z,5.53
2022-08-29T15:04:21.804Z,8.87
2022-08-29T15:07:07.602Z,5.17
2022-08-29T15:09:35.332Z,5.70
2022-08-29T15:12:03.160Z,4.97
2022-08-29T15:14:31.042Z,7.03
2022-08-29T15:16:58.686Z,8.33
2022-08-29T15:22:14.219Z,7.33
2022-08-29T15:24:41.713Z,6.70
2022-08-29T15:27:09.658Z,7.43
2022-08-29T15:29:37.689Z,7.67
2022-08-29T15:32:05.312Z,7.70
2022-08-29T15:34:33.346Z,4.30
2022-08-29T15:37:01.643Z,6.50
2022-08-29T15:39:29.357Z,4.73
2022-08-29T15:41:57.947Z,6.07
2022-08-29T15:44:32.317Z,3.43
2022-08-29T15:47:01.872Z,11.20
2022-08-29T15:49:29.579Z,5.93
2022-08-29T15:51:57.676Z,6.53
2022-08-29T15:54:25.827Z,6.03
2022-08-29T15:56:54.062Z,4.13
2022-08-29T15:59:35.787Z,4.97
2022-08-29T16:02:09.129Z,3.17
2022-08-29T16:04:37.324Z,6.07
2022-08-29T16:07:05.081Z,2.63
2022-08-29T16:09:32.576Z,4.93
2022-08-29T16:12:00.105Z,9.70
2022-08-29T16:17:15.151Z,3.20
2022-08-29T16:19:48.587Z,5.57
2022-08-29T16:22:16.174Z,7.03
2022-08-29T16:24:43.961Z,4.57
2022-08-29T16:27:11.592Z,9.40
2022-08-29T16:29:39.122Z,3.63
2022-08-29T16:32:06.715Z,5.07
2022-08-29T16:34:34.264Z,3.07
2022-08-29T16:37:02.139Z,6.73
2022-08-29T16:39:30.088Z,7.63
2022-08-29T16:41:57.766Z,5.30
2022-08-29T16:44:25.309Z,3.90
2022-08-29T16:46:52.917Z,4.60
2022-08-29T16:49:20.431Z,2.97
2022-08-29T16:51:48.039Z,3.53
2022-08-29T16:54:15.582Z,5.70
2022-08-29T16:56:43.307Z,5.33
2022-08-29T16:59:11.039Z,7.30
2022-08-29T17:01:48.909Z,2.87
2022-08-29T17:04:19.095Z,3.93
2022-08-29T17:06:46.871Z,2.87
2022-08-29T17:09:15.211Z,4.63
2022-08-29T17:11:42.896Z,9.10
2022-08-29T17:14:11.361Z,3.70
2022-08-29T17:16:39.569Z,4.67
2022-08-29T17:19:07.402Z,5.53
2022-08-29T17:21:35.511Z,5.30
2022-08-29T17:24:04.087Z,5.07
2022-08-29T17:26:31.650Z,2.57
2022-08-29T17:28:59.305Z,4.10
2022-08-29T17:31:26.873Z,4.23
2022-08-29T17:33:54.548Z,8.63
2022-08-29T17:36:22.120Z,3.20
2022-08-29T17:38:49.827Z,3.60
2022-08-29T17:41:21.184Z,6.23
2022-08-29T17:43:49.884Z,3.57
2022-08-29T17:46:18.968Z,5.00
2022-08-29T17:48:46.611Z,7.17
2022-08-29T17:51:14.166Z,4.60
2022-08-29T17:53:43.878Z,7.17
2022-08-29T17:56:37.668Z,3.87
2022-08-29T17:59:05.458Z,4.57
2022-08-29T18:01:34.262Z,5.53
2022-08-29T18:04:02.227Z,4.03
2022-08-29T18:06:32.268Z,4.50
2022-08-29T18:09:00.386Z,6.20
2022-08-29T18:11:30.691Z,7.67
2022-08-29T18:13:58.325Z,3.23
2022-08-29T18:16:25.982Z,4.20
2022-08-29T18:18:53.801Z,5.03
2022-08-29T18:21:21.329Z,4.90
2022-08-29T18:23:49.831Z,5.17
2022-08-29T18:26:17.387Z,5.33
2022-08-29T18:28:44.863Z,4.60
2022-08-29T18:31:18.308Z,6.40
2022-08-29T18:34:00.201Z,4.73
2022-08-29T18:36:33.146Z,3.10
2022-08-29T18:39:01.795Z,3.87
2022-08-29T18:41:29.287Z,4.00
2022-08-29T18:43:56.810Z,4.97
2022-08-29T18:46:24.350Z,6.93
2022-08-29T18:48:52.180Z,5.90
2022-08-29T18:51:19.912Z,7.77
2022-08-29T18:53:47.801Z,4.93
2022-08-29T18:56:15.365Z,4.23
2022-08-29T18:58:42.935Z,3.90
2022-08-29T19:01:27.803Z,4.53
2022-08-29T19:03:59.497Z,4.47
2022-08-29T19:06:27.557Z,3.53
2022-08-29T19:08:56.050Z,5.30
2022-08-29T19:11:23.662Z,3.93
2022-08-29T19:13:52.406Z,4.53
2022-08-29T19:16:21.103Z,4.77
2022-08-29T19:18:48.835Z,5.87
2022-08-29T19:21:17.952Z,3.67
2022-08-29T19:23:46.770Z,4.77
2022-08-29T19:26:28.871Z,3.67
2022-08-29T19:29:01.875Z,5.97
2022-08-29T19:31:29.592Z,5.67
2022-08-29T19:33:57.730Z,3.83
2022-08-29T19:36:25.988Z,5.50
2022-08-29T19:38:53.534Z,6.57
2022-08-29T19:41:21.060Z,5.03
2022-08-29T19:43:48.570Z,5.67
2022-08-29T19:46:18.327Z,4.97
2022-08-29T19:48:48.634Z,4.20
2022-08-29T19:51:21.054Z,5.83
2022-08-29T19:53:48.887Z,4.07
2022-08-29T19:56:18.104Z,8.00
2022-08-29T19:58:46.087Z,3.93
2022-08-29T20:01:13.855Z,6.23
2022-08-29T20:03:42.637Z,6.10
2022-08-29T20:06:10.195Z,5.80
2022-08-29T20:08:38.947Z,7.40
2022-08-29T20:11:07.312Z,8.73
2022-08-29T20:13:35.924Z,4.93
2022-08-29T20:16:03.936Z,4.33
2022-08-29T20:18:32.509Z,6.70
2022-08-29T20:21:00.122Z,5.37
2022-08-29T20:23:28.249Z,7.20
2022-08-29T20:25:55.766Z,6.73
2022-08-29T20:28:23.303Z,5.23
2022-08-29T20:30:50.901Z,4.37
2022-08-29T20:33:19.179Z,6.27
2022-08-29T20:35:46.692Z,4.83
2022-08-29T20:38:14.371Z,4.47
2022-08-29T20:40:43.714Z,5.63
2022-08-29T20:43:11.259Z,6.00
2022-08-29T20:45:39.234Z,9.10
2022-08-29T20:48:06.738Z,5.57
2022-08-29T20:50:34.374Z,4.30
2022-08-29T20:53:01.892Z,5.73
2022-08-29T20:55:29.449Z,5.77
2022-08-29T20:57:57.062Z,5.07
2022-08-29T21:00:24.592Z,4.67
2022-08-29T21:02:52.139Z,6.03
2022-08-29T21:05:19.647Z,7.27
2022-08-29T21:07:49.401Z,4.63
2022-08-29T21:10:16.970Z,10.20
2022-08-29T21:12:44.773Z,3.90
2022-08-29T21:15:12.236Z,6.33
2022-08-29T21:17:39.732Z,5.87
2022-08-29T21:20:07.816Z,5.63
2022-08-29T21:22:35.310Z,7.23
2022-08-29T21:25:02.809Z,7.90
2022-08-29T21:27:30.296Z,4.60
2022-08-29T21:29:57.812Z,11.10
2022-08-29T21:32:25.455Z,7.73
2022-08-29T21:34:53.066Z,7.50
2022-08-29T21:37:20.572Z,4.90
2022-08-29T21:39:48.141Z,5.07
2022-08-29T21:42:15.664Z,7.13
2022-08-29T21:44:43.156Z,7.07
2022-08-29T21:47:13.750Z,3.73
2022-08-29T21:49:44.727Z,4.80
2022-08-29T21:52:12.187Z,6.43
2022-08-29T21:54:39.789Z,6.33
2022-08-29T21:57:07.283Z,4.53
2022-08-29T21:59:34.753Z,4.73
2022-08-29T22:02:02.280Z,3.27
2022-08-29T22:04:29.979Z,6.07
2022-08-29T22:06:58.472Z,5.57
2022-08-29T22:09:27.145Z,4.03
2022-08-29T22:11:54.999Z,5.70
2022-08-29T22:14:22.512Z,4.03
2022-08-29T22:16:49.988Z,3.50
2022-08-29T22:19:17.948Z,3.73
2022-08-29T22:21:46.818Z,3.93
2022-08-29T22:24:15.567Z,6.93
2022-08-29T22:26:43.584Z,6.73
2022-08-29T22:29:12.166Z,6.60
2022-08-29T22:31:42.326Z,6.00
2022-08-29T22:34:11.081Z,3.50
2022-08-29T22:36:38.616Z,7.87
2022-08-29T22:39:06.544Z,4.27
2022-08-29T22:41:34.143Z,6.73
2022-08-29T22:44:59.706Z,4.53
2022-08-29T22:46:49.249Z,5.97
2022-08-29T22:49:16.822Z,3.80
2022-08-29T22:51:44.336Z,4.10
2022-08-29T22:54:12.952Z,5.77
2022-08-29T22:56:42.262Z,5.20
2022-08-29T22:59:10.077Z,4.63
2022-08-29T23:01:41.000Z,6.67
2022-08-29T23:04:08.725Z,5.90
2022-08-29T23:06:36.406Z,2.97
2022-08-29T23:09:04.645Z,6.90
2022-08-29T23:11:32.513Z,7.97
2022-08-29T23:14:00.148Z,2.93
2022-08-29T23:16:29.989Z,4.47
2022-08-29T23:18:57.503Z,5.83
2022-08-29T23:21:25.325Z,3.80
2022-08-29T23:23:52.871Z,5.40
2022-08-29T23:26:21.177Z,6.20
2022-08-29T23:28:48.853Z,4.07
2022-08-29T23:31:17.788Z,7.10
2022-08-29T23:33:45.325Z,4.73
2022-08-29T23:36:12.939Z,2.07
2022-08-29T23:38:40.809Z,6.23
2022-08-29T23:41:08.330Z,3.93
2022-08-29T23:43:37.004Z,3.87
2022-08-29T23:46:08.216Z,4.57
2022-08-29T23:48:35.811Z,4.27
2022-08-29T23:51:10.425Z,3.03
2022-08-29T23:53:38.664Z,8.73
2022-08-29T23:56:15.232Z,5.13
2022-08-29T23:58:43.176Z,3.77
